Time;durP1;ratioP1;P1;durP2;ratioP2;P2;SDS_P1;SDS_P2;PMS_P1;PMS_P2;Temp;Humidity;BMP_temperature;BMP_pressure;BME280_temperature;BME280_humidity;BME280_pressure;Samples;Min_cycle;Max_cycle;Signal;HPM_P1;HPM_P2
2021/12/13 00:00:52;;;;;;;124.83;21.87;;;;;;;7.50;24.58;102147.50;4984276;28;20418;-44
2021/12/13 00:03:26;;;;;;;94.23;23.80;;;;;;;7.51;25.14;102146.53;4983281;28;20505;-43
2021/12/13 00:06:00;;;;;;;212.60;26.03;;;;;;;7.51;25.35;102152.69;4982451;28;20427;-44
2021/12/13 00:08:30;;;;;;;100.07;22.80;;;;;;;7.53;25.29;102152.53;4982884;28;20431;-45
2021/12/13 00:11:07;;;;;;;63.33;15.53;;;;;;;7.53;25.32;102156.03;4984316;28;20427;-45
2021/12/13 00:13:40;;;;;;;27.13;13.60;;;;;;;7.54;26.12;102162.19;4983515;28;20465;-44
2021/12/13 00:16:09;;;;;;;268.07;35.57;;;;;;;7.53;26.57;102160.50;4981779;28;20433;-42
2021/12/13 00:18:42;;;;;;;21.70;12.33;;;;;;;7.54;26.27;102163.03;4983724;28;20470;-45
2021/12/13 00:21:14;;;;;;;96.43;17.77;;;;;;;7.54;26.87;102157.72;4981525;28;20888;-42
2021/12/13 00:23:48;;;;;;;202.13;27.43;;;;;;;7.54;27.06;102164.81;4981385;28;21019;-42
2021/12/13 00:26:23;;;;;;;223.13;31.57;;;;;;;7.54;26.56;102152.41;4983457;28;20436;-42
2021/12/13 00:28:52;;;;;;;123.13;18.00;;;;;;;7.54;27.22;102154.22;4983181;28;20804;-42
2021/12/13 00:31:30;;;;;;;24.07;12.70;;;;;;;7.55;27.32;102150.59;4982883;28;20426;-45
2021/12/13 00:34:19;;;;;;;85.93;18.30;;;;;;;7.56;26.20;102160.19;4981069;28;20474;-43
2021/12/13 00:36:50;;;;;;;69.37;19.67;;;;;;;7.57;26.71;102153.94;4982531;28;20423;-43
2021/12/13 00:39:23;;;;;;;128.73;22.33;;;;;;;7.57;27.12;102161.88;4981947;28;20477;-43
2021/12/13 00:41:52;;;;;;;49.50;16.07;;;;;;;7.56;27.42;102165.50;4983463;28;20420;-42
2021/12/13 00:44:25;;;;;;;25.43;13.97;;;;;;;7.58;27.18;102159.09;4981687;28;20478;-42
2021/12/13 00:46:56;;;;;;;164.43;23.83;;;;;;;7.57;28.10;102159.25;4982661;28;20431;-43
2021/12/13 00:49:27;;;;;;;46.33;15.63;;;;;;;7.57;28.98;102161.88;4981969;28;20437;-41
2021/12/13 00:51:57;;;;;;;111.87;21.20;;;;;;;7.57;28.76;102164.53;4982033;28;20435;-42
2021/12/13 00:54:28;;;;;;;66.30;16.67;;;;;;;7.56;29.16;102163.69;4980969;28;20571;-45
2021/12/13 00:57:11;;;;;;;86.63;20.17;;;;;;;7.57;29.81;102159.25;4982412;28;20428;-41
2021/12/13 00:59:44;;;;;;;80.83;18.50;;;;;;;7.56;29.07;102162.84;4981838;28;20470;-41
2021/12/13 01:02:15;;;;;;;97.63;17.30;;;;;;;7.56;29.09;102163.69;4982924;28;20521;-41
2021/12/13 01:04:55;;;;;;;95.83;17.30;;;;;;;7.57;28.65;102161.88;4982082;28;20454;-41
2021/12/13 01:07:59;;;;;;;58.53;15.93;;;;;;;7.56;29.18;102165.50;4981943;28;20419;-41
2021/12/13 01:11:08;;;;;;;151.60;23.37;;;;;;;7.56;28.83;102161.03;4982074;28;20453;-41
2021/12/13 01:13:42;;;;;;;29.90;14.70;;;;;;;7.57;28.01;102165.38;4981019;28;20487;-43
2021/12/13 01:16:21;;;;;;;139.10;24.30;;;;;;;7.58;27.64;102161.75;4985149;28;20430;-43
2021/12/13 01:19:02;;;;;;;111.07;21.47;;;;;;;7.58;27.93;102166.22;4985127;28;20483;-41
2021/12/13 01:21:41;;;;;;;132.97;20.33;;;;;;;7.58;29.21;102161.75;4986304;28;20426;-41
2021/12/13 01:24:15;;;;;;;126.17;24.03;;;;;;;7.57;29.53;102162.72;4984917;28;20477;-42
2021/12/13 01:26:48;;;;;;;124.77;21.40;;;;;;;7.57;29.36;102168.03;4986642;28;20418;-41
2021/12/13 01:29:20;;;;;;;84.13;19.87;;;;;;;7.59;28.79;102174.03;4986411;28;20430;-42
2021/12/13 01:31:53;;;;;;;121.80;23.27;;;;;;;7.61;28.06;102168.59;4986443;28;20438;-43
2021/12/13 01:34:22;;;;;;;125.93;24.37;;;;;;;7.61;28.39;102165.94;4983391;28;20463;-43
2021/12/13 01:37:00;;;;;;;172.83;24.33;;;;;;;7.61;28.44;102168.59;4985869;28;20434;-41
2021/12/13 01:39:31;;;;;;;169.20;23.37;;;;;;;7.60;28.78;102170.41;4983928;28;20474;-41
2021/12/13 01:42:02;;;;;;;141.73;23.27;;;;;;;7.60;29.26;102173.06;4984307;28;20428;-42
2021/12/13 01:44:33;;;;;;;165.90;23.90;;;;;;;7.61;28.94;102174.75;4984490;28;20458;-42
2021/12/13 01:47:07;;;;;;;84.27;19.93;;;;;;;7.60;29.19;102177.53;4985521;28;20427;-41
2021/12/13 01:49:37;;;;;;;35.97;14.60;;;;;;;7.61;29.16;102171.25;4983531;28;20432;-44
2021/12/13 01:52:15;;;;;;;88.03;19.43;;;;;;;7.62;28.96;102178.22;4985382;28;20469;-42
2021/12/13 01:54:43;;;;;;;58.50;16.53;;;;;;;7.63;28.65;102169.28;4984184;28;20825;-43
2021/12/13 01:57:23;;;;;;;133.23;22.50;;;;;;;7.62;29.65;102175.56;4986220;28;20431;-42
2021/12/13 01:59:56;;;;;;;153.10;25.00;;;;;;;7.62;30.55;102180.88;4983371;28;20477;-43
2021/12/13 02:02:32;;;;;;;54.17;16.20;;;;;;;7.63;29.73;102178.09;4983710;28;20449;-42
2021/12/13 02:05:07;;;;;;;221.37;32.40;;;;;;;7.62;30.13;102170.25;4984396;28;20903;-41
2021/12/13 02:07:45;;;;;;;152.97;26.43;;;;;;;7.62;30.72;102172.91;4985577;28;20433;-45
2021/12/13 02:10:18;;;;;;;58.73;19.33;;;;;;;7.62;30.39;102168.44;4982172;28;20423;-40
2021/12/13 02:12:54;;;;;;;94.53;22.57;;;;;;;7.61;31.39;102169.44;4984075;28;20678;-41
2021/12/13 02:18:14;;;;;;;24.90;15.03;;;;;;;7.63;29.73;102179.91;4983329;28;20457;-41
2021/12/13 02:20:45;;;;;;;69.63;20.87;;;;;;;7.63;30.39;102170.13;4984257;28;20461;-42
2021/12/13 02:23:15;;;;;;;41.40;16.53;;;;;;;7.62;30.78;102179.06;4983449;28;20467;-42
2021/12/13 02:25:45;;;;;;;51.13;17.77;;;;;;;7.65;29.26;102177.94;4983433;28;20893;-41
2021/12/13 02:28:16;;;;;;;25.43;14.63;;;;;;;7.65;29.59;102176.13;4983322;28;20435;-42
2021/12/13 02:30:47;;;;;;;29.00;14.30;;;;;;;7.67;29.00;102176.84;4984048;28;20801;-41
2021/12/13 02:33:20;;;;;;;32.07;15.27;;;;;;;7.69;28.90;102179.34;4982861;28;20469;-41
2021/12/13 02:35:52;;;;;;;25.30;14.57;;;;;;;7.71;28.77;102172.06;4984153;28;20454;-42
2021/12/13 02:38:23;;;;;;;45.03;16.80;;;;;;;7.70;28.89;102176.56;4984562;28;20462;-42
2021/12/13 02:40:51;;;;;;;41.43;16.33;;;;;;;7.72;29.20;102171.09;4982953;28;20429;-41
2021/12/13 02:43:23;;;;;;;52.87;16.17;;;;;;;7.73;28.62;102175.44;4983701;28;21010;-41
2021/12/13 02:45:54;;;;;;;30.27;14.97;;;;;;;7.75;28.78;102170.78;4984753;28;20426;-41
2021/12/13 02:48:25;;;;;;;39.00;15.33;;;;;;;7.76;29.37;102172.47;4984193;28;20462;-42
2021/12/13 02:50:57;;;;;;;32.03;14.60;;;;;;;7.76;29.14;102172.47;4984677;28;20450;-40
2021/12/13 02:53:31;;;;;;;17.80;13.23;;;;;;;7.77;28.40;102171.47;4983221;28;20469;-42
2021/12/13 02:55:59;;;;;;;34.93;14.70;;;;;;;7.79;28.42;102172.19;4983565;28;20763;-41
2021/12/13 02:58:29;;;;;;;26.80;14.40;;;;;;;7.80;28.59;102176.50;4982257;28;20427;-41
2021/12/13 03:01:05;;;;;;;31.57;13.40;;;;;;;7.78;28.97;102175.81;4982421;28;20470;-41
2021/12/13 03:03:36;;;;;;;17.70;12.50;;;;;;;7.80;28.76;102176.50;4982602;28;20557;-45
2021/12/13 03:06:07;;;;;;;28.37;15.27;;;;;;;7.79;28.61;102170.34;4985304;28;20436;-43
2021/12/13 03:08:40;;;;;;;25.90;14.53;;;;;;;7.81;28.63;102178.19;4984574;28;20972;-41
2021/12/13 03:11:14;;;;;;;29.20;15.00;;;;;;;7.80;28.92;102184.47;4984578;28;20422;-41
2021/12/13 03:13:41;;;;;;;38.00;16.20;;;;;;;7.79;28.35;102199.56;4984016;28;20470;-41
2021/12/13 03:16:15;;;;;;;29.47;16.80;;;;;;;7.80;28.38;102189.78;4984330;28;20437;-42
2021/12/13 03:18:50;;;;;;;22.47;14.90;;;;;;;7.80;28.72;102190.63;4982148;28;20966;-41
2021/12/13 03:21:50;;;;;;;61.37;19.60;;;;;;;7.79;28.86;102193.44;4982862;28;20794;-41
2021/12/13 03:24:46;;;;;;;37.60;16.90;;;;;;;7.79;28.29;102191.59;4982578;28;20467;-41
2021/12/13 03:27:46;;;;;;;45.53;16.97;;;;;;;7.78;29.04;102186.44;4984488;28;20422;-43
2021/12/13 03:30:18;;;;;;;64.33;18.20;;;;;;;7.77;28.21;102188.25;4984655;28;20423;-41
2021/12/13 03:32:53;;;;;;;73.40;19.37;;;;;;;7.78;27.71;102194.41;4982523;28;20447;-44
2021/12/13 03:35:26;;;;;;;112.50;21.03;;;;;;;7.79;26.93;102182.81;4983282;28;20439;-42
2021/12/13 03:37:58;;;;;;;126.40;25.13;;;;;;;7.78;26.03;102184.63;4983216;28;20432;-41
2021/12/13 03:40:29;;;;;;;73.13;20.60;;;;;;;7.80;25.73;102189.78;4980408;28;20467;-41
2021/12/13 03:43:00;;;;;;;84.77;18.50;;;;;;;7.80;25.96;102189.78;4982654;28;20458;-42
2021/12/13 03:45:34;;;;;;;104.73;21.00;;;;;;;7.80;25.49;102181.81;4983295;28;20427;-43
2021/12/13 03:48:02;;;;;;;157.40;24.90;;;;;;;7.80;24.47;102187.13;4983542;28;20434;-41
2021/12/13 03:50:34;;;;;;;69.00;19.13;;;;;;;7.83;23.92;102197.47;4983112;28;20430;-41
2021/12/13 03:53:10;;;;;;;55.47;15.20;;;;;;;7.85;23.40;102194.69;4982271;28;20451;-41
2021/12/13 03:55:40;;;;;;;108.83;22.17;;;;;;;7.86;23.07;102202.50;4981976;28;20433;-41
2021/12/13 03:58:12;;;;;;;137.73;19.93;;;;;;;7.87;23.03;102196.22;4982285;28;20427;-42
2021/12/13 04:00:43;;;;;;;121.77;22.53;;;;;;;7.88;23.75;102200.56;4982174;28;20467;-42
2021/12/13 04:03:13;;;;;;;122.17;23.33;;;;;;;7.87;23.71;102196.22;4981356;28;20989;-41
2021/12/13 04:05:41;;;;;;;168.27;24.23;;;;;;;7.89;23.25;102201.38;4983281;28;20435;-41
2021/12/13 04:08:11;;;;;;;157.13;25.30;;;;;;;7.91;22.71;102204.72;4983307;28;20446;-41
2021/12/13 04:10:43;;;;;;;99.17;20.80;;;;;;;7.91;22.61;102205.56;4981668;28;20933;-41
2021/12/13 04:13:14;;;;;;;67.17;19.20;;;;;;;7.92;22.80;102204.56;4981598;28;20466;-41
2021/12/13 04:15:57;;;;;;;58.13;16.60;;;;;;;7.93;23.25;102210.72;4982314;28;20802;-42
2021/12/13 04:18:41;;;;;;;116.77;22.73;;;;;;;7.94;22.22;102207.09;4981668;28;20434;-41
2021/12/13 04:21:11;;;;;;;83.70;19.20;;;;;;;7.94;23.12;102210.59;4981306;28;20478;-41
2021/12/13 04:23:39;;;;;;;138.00;25.97;;;;;;;7.93;23.29;102216.88;4980057;28;20471;-45
2021/12/13 04:26:11;;;;;;;121.33;22.80;;;;;;;7.94;23.17;102213.25;4982716;28;21048;-43
2021/12/13 04:28:42;;;;;;;73.20;19.60;;;;;;;7.95;22.43;102216.72;4981094;28;20435;-42
2021/12/13 04:31:13;;;;;;;66.73;18.37;;;;;;;7.97;21.96;102209.47;4980997;28;20428;-43
2021/12/13 04:33:44;;;;;;;60.20;18.67;;;;;;;7.98;22.01;102216.44;4980177;28;20471;-43
2021/12/13 04:36:15;;;;;;;116.03;20.67;;;;;;;7.97;22.49;102212.97;4983050;28;20427;-42
2021/12/13 04:38:51;;;;;;;74.23;21.23;;;;;;;7.98;22.72;102222.59;4979680;28;20438;-42
2021/12/13 04:41:26;;;;;;;95.37;23.47;;;;;;;7.99;23.06;102220.78;4980536;28;20470;-42
2021/12/13 04:43:59;;;;;;;74.93;21.10;;;;;;;8.00;22.19;102219.81;4982335;28;20832;-43
2021/12/13 04:46:29;;;;;;;55.83;17.73;;;;;;;8.00;22.49;102220.66;4982576;28;20427;-41
2021/12/13 04:49:01;;;;;;;175.87;27.30;;;;;;;8.01;21.90;102219.66;4980745;28;20529;-41
2021/12/13 04:51:38;;;;;;;75.50;18.57;;;;;;;8.02;22.54;102226.66;4980062;28;20434;-41
2021/12/13 04:54:06;;;;;;;121.33;22.27;;;;;;;8.02;22.55;102226.66;4981149;28;21009;-41
2021/12/13 04:56:35;;;;;;;82.63;19.90;;;;;;;8.03;22.70;102230.16;4983007;28;20431;-41
2021/12/13 04:59:05;;;;;;;47.60;16.30;;;;;;;8.05;21.64;102234.34;4984766;28;20452;-44
2021/12/13 05:01:34;;;;;;;36.93;17.80;;;;;;;8.07;21.00;102220.88;4992559;28;20845;-41
2021/12/13 05:04:06;;;;;;;44.13;16.37;;;;;;;8.09;21.30;102234.88;4991827;28;20470;-45
2021/12/13 05:06:37;;;;;;;92.57;20.10;;;;;;;8.09;21.47;102237.53;4992540;28;20441;-41
2021/12/13 05:09:09;;;;;;;69.50;18.53;;;;;;;8.09;22.26;102232.22;4992931;28;20449;-44
2021/12/13 05:11:41;;;;;;;126.80;25.23;;;;;;;8.10;21.80;102231.22;4992730;28;20923;-42
2021/12/13 05:14:10;;;;;;;94.27;19.63;;;;;;;8.10;21.97;102237.38;4991885;28;20469;-43
2021/12/13 05:16:42;;;;;;;137.87;23.37;;;;;;;8.09;22.23;102241.03;4992842;28;20955;-43
2021/12/13 05:19:12;;;;;;;89.27;19.30;;;;;;;8.10;21.64;102245.34;4992437;28;20533;-44
2021/12/13 05:21:43;;;;;;;193.47;30.03;;;;;;;8.10;21.58;102236.53;4992583;28;20478;-44
2021/12/13 05:24:14;;;;;;;79.90;21.53;;;;;;;8.11;21.51;102241.72;4992028;28;20473;-44
2021/12/13 05:26:53;;;;;;;81.47;20.30;;;;;;;8.11;21.14;102239.06;4992584;28;20515;-43
2021/12/13 05:29:24;;;;;;;75.80;21.70;;;;;;;8.12;20.97;102246.03;4992623;28;20931;-43
2021/12/13 05:31:53;;;;;;;115.77;28.27;;;;;;;8.12;19.71;102247.88;4992820;28;20427;-44
2021/12/13 05:34:21;;;;;;;91.47;23.20;;;;;;;8.14;19.51;102243.25;4992110;28;20466;-45
2021/12/13 05:36:56;;;;;;;84.70;23.17;;;;;;;8.16;19.01;102244.78;4992526;28;20810;-45
2021/12/13 05:39:26;;;;;;;67.53;23.93;;;;;;;8.18;18.63;102242.00;4980034;28;20438;-43
2021/12/13 05:41:58;;;;;;;77.77;23.47;;;;;;;8.20;18.18;102243.53;4973082;28;20470;-43
2021/12/13 05:44:28;;;;;;;62.13;23.03;;;;;;;8.22;17.97;102243.38;4972835;28;20470;-43
2021/12/13 05:46:57;;;;;;;120.10;27.40;;;;;;;8.25;17.68;102245.72;4973633;28;20458;-44
2021/12/13 05:49:30;;;;;;;59.27;23.10;;;;;;;8.24;18.08;102250.19;4973870;28;20474;-44
2021/12/13 05:52:07;;;;;;;59.27;21.17;;;;;;;8.26;17.03;102258.03;4973485;28;20439;-42
2021/12/13 05:54:37;;;;;;;78.80;24.80;;;;;;;8.28;16.56;102270.22;4972598;28;21003;-43
2021/12/13 05:57:11;;;;;;;76.60;25.90;;;;;;;8.29;15.89;102265.75;4973528;28;20439;-42
2021/12/13 05:59:53;;;;;;;85.83;25.80;;;;;;;8.32;15.62;102274.28;4973477;28;20439;-43
2021/12/13 06:02:40;;;;;;;98.47;30.37;;;;;;;8.36;16.29;102274.00;4975644;28;20479;-42
2021/12/13 06:05:15;;;;;;;84.13;30.43;;;;;;;8.36;15.76;102276.66;4976351;28;20466;-45
2021/12/13 06:07:43;;;;;;;103.87;31.70;;;;;;;8.38;15.05;102264.91;4976850;28;20434;-44
2021/12/13 06:10:14;;;;;;;105.67;32.43;;;;;;;8.40;15.15;102272.72;4976784;28;20434;-43
2021/12/13 06:12:48;;;;;;;107.50;31.03;;;;;;;8.41;14.58;102279.72;4975954;28;20983;-43
2021/12/13 06:15:27;;;;;;;105.00;29.50;;;;;;;8.42;14.65;102286.72;4976618;28;20436;-44
2021/12/13 06:17:59;;;;;;;92.13;30.57;;;;;;;8.43;14.91;102288.38;4976719;28;20435;-46
2021/12/13 06:20:30;;;;;;;159.50;35.73;;;;;;;8.44;14.93;102288.25;4976573;28;20431;-45
2021/12/13 06:23:09;;;;;;;103.87;33.20;;;;;;;8.47;14.48;102292.44;4975560;28;20455;-44
2021/12/13 06:25:38;;;;;;;124.77;31.00;;;;;;;8.47;14.42;102289.75;4976170;28;20435;-43
2021/12/13 06:28:16;;;;;;;109.80;30.93;;;;;;;8.48;14.70;102283.47;4976502;28;20434;-44
2021/12/13 06:30:52;;;;;;;122.93;34.47;;;;;;;8.49;14.61;102278.00;4976226;28;20441;-42
2021/12/13 06:33:20;;;;;;;112.97;33.67;;;;;;;8.49;15.16;102293.09;4975510;28;20474;-46
2021/12/13 06:35:49;;;;;;;82.47;30.97;;;;;;;8.48;15.75;102294.09;4976014;28;20439;-44
2021/12/13 06:38:40;;;;;;;86.83;27.70;;;;;;;8.47;16.06;102306.56;4975969;28;21028;-43
2021/12/13 06:41:13;;;;;;;82.53;26.33;;;;;;;8.49;15.59;102312.56;4976101;28;20478;-48
2021/12/13 06:43:48;;;;;;;92.20;24.33;;;;;;;8.49;15.45;102303.75;4975264;28;20477;-44
2021/12/13 06:46:36;;;;;;;69.37;27.87;;;;;;;8.51;15.17;102307.94;4976314;28;20932;-41
2021/12/13 06:49:17;;;;;;;75.00;26.47;;;;;;;8.51;15.40;102301.78;4975274;28;20981;-41
2021/12/13 06:51:50;;;;;;;62.87;27.67;;;;;;;8.51;16.22;102307.13;4975469;28;20426;-43
2021/12/13 06:54:22;;;;;;;87.40;28.73;;;;;;;8.50;16.46;102314.25;4974679;28;20506;-41
2021/12/13 06:56:59;;;;;;;79.13;28.40;;;;;;;8.53;16.07;102318.44;4975196;28;20450;-44
2021/12/13 06:59:31;;;;;;;94.07;31.83;;;;;;;8.51;16.02;102318.56;4975413;28;20804;-41
2021/12/13 07:02:05;;;;;;;105.27;31.00;;;;;;;8.52;15.29;102327.38;4975111;28;20475;-42
2021/12/13 07:04:55;;;;;;;96.03;33.00;;;;;;;8.52;14.88;102330.88;4974488;28;20467;-41
2021/12/13 07:07:27;;;;;;;76.53;28.33;;;;;;;8.53;14.10;102327.25;4975030;28;20431;-44
2021/12/13 07:09:57;;;;;;;91.10;29.73;;;;;;;8.53;13.99;102332.56;4974908;28;20933;-41
2021/12/13 07:12:27;;;;;;;73.03;27.50;;;;;;;8.54;14.07;102331.56;4974573;28;20823;-41
2021/12/13 07:14:56;;;;;;;82.33;29.23;;;;;;;8.56;13.94;102329.63;4974136;28;20474;-42
2021/12/13 07:17:30;;;;;;;63.93;26.20;;;;;;;8.58;14.44;102329.47;4974891;28;20443;-42
2021/12/13 07:19:59;;;;;;;82.40;28.10;;;;;;;8.58;13.69;102340.94;4974969;28;20515;-43
2021/12/13 07:22:30;;;;;;;69.83;28.17;;;;;;;8.59;14.22;102342.63;4974605;28;20479;-41
2021/12/13 07:25:07;;;;;;;77.30;28.03;;;;;;;8.59;15.07;102339.13;4974337;28;20467;-42
2021/12/13 07:27:41;;;;;;;69.53;27.57;;;;;;;8.58;15.20;102340.09;4975091;28;20458;-41
2021/12/13 07:30:14;;;;;;;56.00;25.40;;;;;;;8.59;15.04;102336.47;4974653;28;20435;-40
2021/12/13 07:32:46;;;;;;;53.50;25.90;;;;;;;8.56;15.27;102334.94;4974043;28;20489;-40
2021/12/13 07:35:17;;;;;;;61.20;25.93;;;;;;;8.58;14.56;102329.47;4975026;28;20439;-41
2021/12/13 07:37:49;;;;;;;61.37;27.17;;;;;;;8.58;14.14;102330.31;4974597;28;20434;-41
2021/12/13 07:40:25;;;;;;;66.00;25.00;;;;;;;8.56;13.39;102334.94;4972431;28;20439;-41
2021/12/13 07:42:59;;;;;;;62.47;26.00;;;;;;;8.56;13.07;102340.25;4973586;28;20855;-41
2021/12/13 07:45:33;;;;;;;66.30;27.73;;;;;;;8.57;12.48;102333.13;4974310;28;20439;-41
2021/12/13 07:48:07;;;;;;;75.73;27.80;;;;;;;8.54;11.53;102339.53;4974331;28;20446;-41
2021/12/13 07:50:35;;;;;;;57.90;24.13;;;;;;;8.59;11.03;102341.78;4974351;28;20424;-41
2021/12/13 07:53:07;;;;;;;60.40;25.50;;;;;;;8.58;9.76;102340.09;4973247;28;20467;-43
2021/12/13 07:55:41;;;;;;;71.87;27.00;;;;;;;8.60;10.38;102341.63;4974362;28;20453;-41
2021/12/13 07:58:08;;;;;;;63.57;25.50;;;;;;;8.63;9.91;102343.19;4974063;28;20431;-41
2021/12/13 08:00:40;;;;;;;51.67;26.37;;;;;;;8.66;9.70;102345.56;4974341;28;20446;-42
2021/12/13 08:03:11;;;;;;;50.43;23.20;;;;;;;8.69;9.64;102347.91;4973282;28;20471;-43
2021/12/13 08:05:43;;;;;;;57.73;25.90;;;;;;;8.71;9.91;102344.13;4973888;28;20465;-41
2021/12/13 08:08:18;;;;;;;55.00;24.83;;;;;;;8.76;9.67;102341.88;4974124;28;20463;-41
2021/12/13 08:10:47;;;;;;;52.63;24.77;;;;;;;8.79;10.13;102343.38;4974179;28;20438;-43
2021/12/13 08:13:18;;;;;;;58.10;25.07;;;;;;;8.80;9.67;102337.94;4973123;28;20504;-41
2021/12/13 08:15:51;;;;;;;66.17;27.90;;;;;;;8.83;9.99;102347.44;4974020;28;20802;-40
2021/12/13 08:18:25;;;;;;;49.60;25.90;;;;;;;8.87;8.93;102347.00;4973665;28;20803;-42
2021/12/13 08:20:55;;;;;;;46.03;25.00;;;;;;;8.91;8.80;102347.53;4973669;28;20431;-42
2021/12/13 08:23:29;;;;;;;44.87;24.50;;;;;;;8.97;8.57;102357.59;4973404;28;20478;-41
2021/12/13 08:26:01;;;;;;;69.47;29.20;;;;;;;8.98;9.28;102353.97;4973567;28;20425;-42
2021/12/13 08:28:36;;;;;;;39.60;23.67;;;;;;;9.02;9.48;102367.81;4973561;28;20439;-40
2021/12/13 08:31:08;;;;;;;40.20;24.13;;;;;;;9.06;9.52;102362.03;4973738;28;20450;-41
2021/12/13 08:33:40;;;;;;;40.57;22.63;;;;;;;9.08;9.91;102353.91;4972807;28;20981;-41
2021/12/13 08:36:10;;;;;;;50.20;25.67;;;;;;;9.09;11.49;102355.56;4973566;28;20458;-41
2021/12/13 08:38:44;;;;;;;50.63;24.30;;;;;;;9.12;11.50;102356.13;4973944;28;20439;-41
2021/12/13 08:41:23;;;;;;;39.57;22.30;;;;;;;9.10;12.58;102359.91;4973269;28;20537;-41
2021/12/13 08:43:55;;;;;;;43.90;22.23;;;;;;;9.11;12.22;102349.13;4972826;28;20474;-41
2021/12/13 08:46:43;;;;;;;41.83;22.67;;;;;;;9.13;12.88;102354.31;4973315;28;20442;-41
2021/12/13 08:49:19;;;;;;;37.07;22.80;;;;;;;9.13;13.55;102355.16;4973388;28;20439;-42
2021/12/13 08:52:12;;;;;;;38.43;21.40;;;;;;;9.13;14.20;102356.97;4973212;28;20441;-43
2021/12/13 08:54:46;;;;;;;40.97;21.03;;;;;;;9.11;15.35;102372.25;4972734;28;20468;-45
2021/12/13 08:57:32;;;;;;;46.93;22.20;;;;;;;9.13;14.41;102368.47;4973288;28;20430;-41
2021/12/13 09:00:05;;;;;;;31.77;20.37;;;;;;;9.13;15.50;102365.78;4973023;28;20443;-41
2021/12/13 09:02:40;;;;;;;55.00;22.53;;;;;;;9.12;16.03;102365.94;4972923;28;20482;-43
2021/12/13 09:05:13;;;;;;;37.03;21.87;;;;;;;9.12;16.39;102368.59;4972877;28;20477;-43
2021/12/13 09:07:49;;;;;;;46.40;22.23;;;;;;;9.12;16.02;102366.78;4973171;28;20441;-43
2021/12/13 09:10:17;;;;;;;36.70;20.80;;;;;;;9.13;15.97;102363.13;4972890;28;20431;-42
2021/12/13 09:12:46;;;;;;;46.03;23.30;;;;;;;9.12;16.96;102366.78;4972379;28;20446;-42
2021/12/13 09:15:22;;;;;;;33.10;20.47;;;;;;;9.14;16.63;102372.78;4973245;28;20933;-41
2021/12/13 09:17:52;;;;;;;40.90;21.60;;;;;;;9.13;17.70;102370.28;4973243;28;20438;-43
2021/12/13 09:20:24;;;;;;;35.23;20.77;;;;;;;9.16;17.23;102372.66;4972993;28;20439;-45
2021/12/13 09:22:55;;;;;;;36.47;20.47;;;;;;;9.16;17.50;102376.16;4972190;28;21005;-42
2021/12/13 09:25:30;;;;;;;37.77;21.50;;;;;;;9.16;18.01;102381.47;4973451;28;20439;-44
2021/12/13 09:28:02;;;;;;;38.67;22.60;;;;;;;9.17;19.38;102384.97;4973271;28;20426;-42
2021/12/13 09:30:38;;;;;;;32.70;19.80;;;;;;;9.15;19.48;102374.47;4972891;28;20438;-44
2021/12/13 09:33:14;;;;;;;35.33;19.63;;;;;;;9.18;19.73;102374.16;4972037;28;20481;-42
2021/12/13 09:35:48;;;;;;;25.93;18.83;;;;;;;9.21;19.76;102378.34;4973199;28;20430;-45
2021/12/13 09:38:29;;;;;;;33.80;19.77;;;;;;;9.22;20.54;102383.53;4976732;28;20449;-46
2021/12/13 09:41:06;;;;;;;32.83;18.70;;;;;;;9.24;20.59;102386.03;4976751;28;20427;-43
2021/12/13 09:43:42;;;;;;;38.03;21.70;;;;;;;9.25;21.19;102390.38;4975686;28;20470;-44
2021/12/13 09:46:13;;;;;;;28.10;17.43;;;;;;;9.25;22.99;102388.56;4976975;28;20794;-42
2021/12/13 09:48:49;;;;;;;27.03;17.87;;;;;;;9.23;24.12;102387.84;4976715;28;20449;-43
2021/12/13 09:51:21;;;;;;;27.63;18.70;;;;;;;9.26;24.66;102389.38;4976665;28;20505;-48
2021/12/13 09:53:52;;;;;;;26.50;17.93;;;;;;;9.23;26.78;102382.53;4975836;28;20466;-47
2021/12/13 09:56:22;;;;;;;26.63;17.50;;;;;;;9.25;27.38;102393.06;4976647;28;20441;-45
2021/12/13 09:58:52;;;;;;;21.87;16.00;;;;;;;9.25;28.56;102393.06;4976589;28;20453;-45
2021/12/13 10:01:23;;;;;;;28.77;18.73;;;;;;;9.25;30.80;102399.22;4976521;28;20430;-44
2021/12/13 10:03:56;;;;;;;21.60;16.10;;;;;;;9.23;31.55;102401.16;4975537;28;20482;-46
2021/12/13 10:06:28;;;;;;;19.37;15.53;;;;;;;9.21;33.51;102397.81;4976773;28;20921;-42
2021/12/13 10:09:01;;;;;;;21.57;15.33;;;;;;;9.25;33.06;102393.06;4977376;28;20804;-43
2021/12/13 10:11:34;;;;;;;19.90;16.67;;;;;;;9.23;34.02;102403.84;4976757;28;20438;-43
2021/12/13 10:14:02;;;;;;;21.17;15.30;;;;;;;9.26;34.93;102400.03;4975329;28;20846;-43
2021/12/13 10:16:39;;;;;;;20.57;15.93;;;;;;;9.25;36.23;102398.38;4976041;28;20442;-42
2021/12/13 10:19:14;;;;;;;18.43;14.20;;;;;;;9.28;36.72;102390.09;4976211;28;20478;-43
2021/12/13 10:21:44;;;;;;;22.40;13.97;;;;;;;9.28;38.11;102392.75;4976130;28;20431;-43
2021/12/13 10:24:18;;;;;;;24.17;15.10;;;;;;;9.31;39.01;102392.47;4975479;28;20843;-43
2021/12/13 10:26:47;;;;;;;25.33;14.40;;;;;;;9.32;39.65;102397.63;4976045;28;20431;-44
2021/12/13 10:29:36;;;;;;;21.53;13.93;;;;;;;9.33;41.58;102390.47;4976112;28;20443;-46
2021/12/13 10:32:08;;;;;;;25.33;15.77;;;;;;;9.32;42.96;102388.78;4975692;28;20963;-42
2021/12/13 10:34:42;;;;;;;21.43;14.70;;;;;;;9.35;43.77;102381.34;4975165;28;20871;-43
2021/12/13 10:37:15;;;;;;;19.43;15.07;;;;;;;9.37;44.12;102387.38;4975752;28;20434;-46
2021/12/13 10:39:46;;;;;;;18.93;14.73;;;;;;;9.43;43.81;102383.28;4975471;28;20435;-42
2021/12/13 10:42:18;;;;;;;21.30;14.23;;;;;;;9.42;48.43;102387.78;4975597;28;20455;-43
2021/12/13 10:44:46;;;;;;;18.10;15.37;;;;;;;9.44;49.11;102393.78;4974729;28;20513;-43
2021/12/13 10:47:19;;;;;;;20.00;15.27;;;;;;;9.48;50.79;102382.81;4974931;28;20442;-44
2021/12/13 10:49:50;;;;;;;18.63;15.60;;;;;;;9.47;53.32;102386.50;4975063;28;20439;-42
2021/12/13 10:52:21;;;;;;;18.30;14.63;;;;;;;9.44;55.80;102380.47;4975164;28;20838;-42
2021/12/13 10:54:53;;;;;;;16.90;14.67;;;;;;;9.47;56.59;102389.97;4974906;28;20485;-43
2021/12/13 10:57:24;;;;;;;19.00;14.60;;;;;;;9.49;56.49;102384.50;4975540;28;20458;-45
2021/12/13 10:59:52;;;;;;;17.30;14.80;;;;;;;9.53;56.86;102388.56;4975499;28;20461;-44
2021/12/13 11:02:24;;;;;;;16.60;14.30;;;;;;;9.56;57.17;102389.06;4975207;28;20461;-43
2021/12/13 11:04:58;;;;;;;19.43;12.80;;;;;;;9.58;59.02;102388.94;4974473;28;20479;-42
2021/12/13 11:07:28;;;;;;;18.20;12.77;;;;;;;9.60;60.45;102392.28;4975139;28;20442;-47
2021/12/13 11:09:58;;;;;;;15.67;13.03;;;;;;;9.62;61.19;102379.63;4975072;28;20446;-44
2021/12/13 11:12:29;;;;;;;16.77;13.40;;;;;;;9.63;62.73;102389.31;4974951;28;20461;-44
2021/12/13 11:15:02;;;;;;;18.00;13.50;;;;;;;9.66;62.83;102384.53;4974942;28;20507;-43
2021/12/13 11:17:33;;;;;;;16.90;12.40;;;;;;;9.69;65.76;102380.72;4975214;28;20438;-43
2021/12/13 11:20:09;;;;;;;13.53;12.20;;;;;;;9.77;64.59;102378.13;4975179;28;20807;-43
2021/12/13 11:22:37;;;;;;;12.80;10.90;;;;;;;9.79;66.35;102377.00;4974776;28;20461;-44
2021/12/13 11:25:09;;;;;;;14.90;11.20;;;;;;;9.84;67.75;102376.53;4974531;28;20489;-44
2021/12/13 11:27:38;;;;;;;12.00;10.70;;;;;;;9.90;68.12;102379.44;4974621;28;20537;-44
2021/12/13 11:30:09;;;;;;;14.03;11.10;;;;;;;9.91;70.41;102373.13;4974953;28;20435;-43
2021/12/13 11:33:16;;;;;;;10.30;9.20;;;;;;;9.92;72.37;102369.47;4974511;28;20457;-44
2021/12/13 11:36:11;;;;;;;13.07;10.80;;;;;;;9.99;72.92;102378.53;4974503;28;20447;-44
2021/12/13 11:38:55;;;;;;;9.67;8.73;;;;;;;9.98;76.89;102381.34;4974639;28;20431;-44
2021/12/13 11:41:51;;;;;;;12.33;10.00;;;;;;;9.92;79.47;102384.59;4974479;28;20431;-43
2021/12/13 11:44:35;;;;;;;11.07;9.77;;;;;;;9.96;78.97;102378.84;4973938;28;20479;-43
2021/12/13 11:47:50;;;;;;;12.03;10.77;;;;;;;9.97;79.19;102371.69;4974589;28;20435;-44
2021/12/13 11:50:55;;;;;;;10.10;9.10;;;;;;;10.03;78.69;102373.75;4974420;28;20438;-44